sensor_id;sensor_type;location;lat;lon;timestamp;pressure;altitude;pressure_sealevel;temperature;humidity
55010;BME280;40903;51.638;7.528;2023-12-20T00:01:00;100826.69;;;7.64;100.00
55010;BME280;40903;51.638;7.528;2023-12-20T00:03:26;100830.44;;;7.58;100.00
55010;BME280;40903;51.638;7.528;2023-12-20T00:05:52;100826.41;;;7.55;100.00
55010;BME280;40903;51.638;7.528;2023-12-20T00:08:17;100816.59;;;7.49;100.00
55010;BME280;40903;51.638;7.528;2023-12-20T00:10:43;100823.66;;;7.45;100.00
55010;BME280;40903;51.638;7.528;2023-12-20T00:13:09;100819.31;;;7.44;100.00
55010;BME280;40903;51.638;7.528;2023-12-20T00:15:38;100816.59;;;7.39;100.00
55010;BME280;40903;51.638;7.528;2023-12-20T00:18:04;100816.03;;;7.37;100.00
55010;BME280;40903;51.638;7.528;2023-12-20T00:20:29;100817.94;;;7.37;100.00
55010;BME280;40903;51.638;7.528;2023-12-20T00:22:58;100815.75;;;7.34;100.00
55010;BME280;40903;51.638;7.528;2023-12-20T00:25:24;100822.81;;;7.30;100.00
55010;BME280;40903;51.638;7.528;2023-12-20T00:27:50;100834.97;;;7.27;100.00
55010;BME280;40903;51.638;7.528;2023-12-20T00:30:16;100840.94;;;7.24;100.00
55010;BME280;40903;51.638;7.528;2023-12-20T00:32:43;100844.19;;;7.21;100.00
55010;BME280;40903;51.638;7.528;2023-12-20T00:35:14;100847.41;;;7.18;100.00
55010;BME280;40903;51.638;7.528;2023-12-20T00:37:39;100846.56;;;7.13;100.00
55010;BME280;40903;51.638;7.528;2023-12-20T00:40:05;100852.00;;;7.13;100.00
55010;BME280;40903;51.638;7.528;2023-12-20T00:42:32;100846.56;;;7.13;100.00
55010;BME280;40903;51.638;7.528;2023-12-20T00:44:59;100848.78;;;7.16;100.00
55010;BME280;40903;51.638;7.528;2023-12-20T00:47:24;100848.50;;;7.17;100.00
55010;BME280;40903;51.638;7.528;2023-12-20T00:49:50;100855.28;;;7.20;100.00
55010;BME280;40903;51.638;7.528;2023-12-20T00:52:15;100837.94;;;7.26;100.00
55010;BME280;40903;51.638;7.528;2023-12-20T00:54:42;100841.78;;;7.30;100.00
55010;BME280;40903;51.638;7.528;2023-12-20T00:57:08;100849.94;;;7.30;100.00
55010;BME280;40903;51.638;7.528;2023-12-20T00:59:34;100857.47;;;7.28;100.00
55010;BME280;40903;51.638;7.528;2023-12-20T01:02:00;100862.34;;;7.26;100.00
55010;BME280;40903;51.638;7.528;2023-12-20T01:04:26;100867.22;;;7.24;100.00
55010;BME280;40903;51.638;7.528;2023-12-20T01:06:52;100869.94;;;7.24;100.00
55010;BME280;40903;51.638;7.528;2023-12-20T01:09:18;100874.28;;;7.20;100.00
55010;BME280;40903;51.638;7.528;2023-12-20T01:11:44;100875.91;;;7.21;100.00
55010;BME280;40903;51.638;7.528;2023-12-20T01:14:14;100870.97;;;7.13;100.00
55010;BME280;40903;51.638;7.528;2023-12-20T01:16:40;100876.94;;;7.10;100.00
55010;BME280;40903;51.638;7.528;2023-12-20T01:19:05;100880.16;;;7.07;100.00
55010;BME280;40903;51.638;7.528;2023-12-20T01:21:33;100874.44;;;7.03;100.00
55010;BME280;40903;51.638;7.528;2023-12-20T01:23:58;100872.28;;;7.00;100.00
55010;BME280;40903;51.638;7.528;2023-12-20T01:26:24;100879.59;;;7.00;100.00
55010;BME280;40903;51.638;7.528;2023-12-20T01:28:49;100873.34;;;6.99;100.00
55010;BME280;40903;51.638;7.528;2023-12-20T01:31:15;100884.19;;;6.94;100.00
55010;BME280;40903;51.638;7.528;2023-12-20T01:33:40;100890.06;;;6.86;100.00
55010;BME280;40903;51.638;7.528;2023-12-20T01:36:06;100893.00;;;6.80;100.00
55010;BME280;40903;51.638;7.528;2023-12-20T01:38:31;100888.38;;;6.75;100.00
55010;BME280;40903;51.638;7.528;2023-12-20T01:40:57;100886.47;;;6.71;100.00
55010;BME280;40903;51.638;7.528;2023-12-20T01:43:23;100895.69;;;6.70;100.00
55010;BME280;40903;51.638;7.528;2023-12-20T01:45:48;100882.94;;;6.70;100.00
55010;BME280;40903;51.638;7.528;2023-12-20T01:48:15;100894.84;;;6.69;100.00
55010;BME280;40903;51.638;7.528;2023-12-20T01:50:41;100891.03;;;6.65;100.00
55010;BME280;40903;51.638;7.528;2023-12-20T01:53:10;100885.06;;;6.63;100.00
55010;BME280;40903;51.638;7.528;2023-12-20T01:55:39;100880.97;;;6.61;100.00
55010;BME280;40903;51.638;7.528;2023-12-20T01:58:05;100885.84;;;6.59;100.00
55010;BME280;40903;51.638;7.528;2023-12-20T02:00:31;100892.34;;;6.58;100.00
55010;BME280;40903;51.638;7.528;2023-12-20T02:03:00;100891.81;;;6.61;100.00
55010;BME280;40903;51.638;7.528;2023-12-20T02:05:26;100885.84;;;6.59;100.00
55010;BME280;40903;51.638;7.528;2023-12-20T02:07:53;100888.31;;;6.65;100.00
55010;BME280;40903;51.638;7.528;2023-12-20T02:10:19;100883.16;;;6.64;100.00
55010;BME280;40903;51.638;7.528;2023-12-20T02:12:44;100881.53;;;6.63;100.00
55010;BME280;40903;51.638;7.528;2023-12-20T02:15:10;100870.13;;;6.61;100.00
55010;BME280;40903;51.638;7.528;2023-12-20T02:17:36;100874.72;;;6.60;100.00
55010;BME280;40903;51.638;7.528;2023-12-20T02:20:04;100881.53;;;6.63;100.00
55010;BME280;40903;51.638;7.528;2023-12-20T02:22:31;100870.16;;;6.66;100.00
55010;BME280;40903;51.638;7.528;2023-12-20T02:24:56;100871.25;;;6.65;100.00
55010;BME280;40903;51.638;7.528;2023-12-20T02:27:23;100880.72;;;6.62;100.00
55010;BME280;40903;51.638;7.528;2023-12-20T02:29:49;100864.72;;;6.61;100.00
55010;BME280;40903;51.638;7.528;2023-12-20T02:32:18;100877.44;;;6.60;100.00
55010;BME280;40903;51.638;7.528;2023-12-20T02:34:46;100878.81;;;6.63;100.00
55010;BME280;40903;51.638;7.528;2023-12-20T02:37:12;100870.97;;;6.61;100.00
55010;BME280;40903;51.638;7.528;2023-12-20T02:39:38;100876.94;;;6.63;100.00
55010;BME280;40903;51.638;7.528;2023-12-20T02:42:03;100886.91;;;6.58;100.00
55010;BME280;40903;51.638;7.528;2023-12-20T02:44:29;100874.44;;;6.57;100.00
55010;BME280;40903;51.638;7.528;2023-12-20T02:46:54;100869.03;;;6.57;100.00
55010;BME280;40903;51.638;7.528;2023-12-20T02:49:20;100873.38;;;6.58;100.00
55010;BME280;40903;51.638;7.528;2023-12-20T02:51:45;100885.84;;;6.59;100.00
55010;BME280;40903;51.638;7.528;2023-12-20T02:54:11;100877.97;;;6.57;100.00
55010;BME280;40903;51.638;7.528;2023-12-20T02:56:37;100874.16;;;6.58;100.00
55010;BME280;40903;51.638;7.528;2023-12-20T02:59:03;100878.25;;;6.56;100.00
55010;BME280;40903;51.638;7.528;2023-12-20T03:01:31;100877.94;;;6.52;100.00
55010;BME280;40903;51.638;7.528;2023-12-20T03:03:57;100866.03;;;6.53;100.00
55010;BME280;40903;51.638;7.528;2023-12-20T03:06:23;100869.78;;;6.47;100.00
55010;BME280;40903;51.638;7.528;2023-12-20T03:08:48;100874.06;;;6.43;100.00
55010;BME280;40903;51.638;7.528;2023-12-20T03:11:14;100869.47;;;6.44;100.00
55010;BME280;40903;51.638;7.528;2023-12-20T03:13:43;100873.81;;;6.45;100.00
55010;BME280;40903;51.638;7.528;2023-12-20T03:16:12;100871.66;;;6.47;100.00
55010;BME280;40903;51.638;7.528;2023-12-20T03:18:37;100875.19;;;6.47;100.00
55010;BME280;40903;51.638;7.528;2023-12-20T03:21:06;100865.69;;;6.45;100.00
55010;BME280;40903;51.638;7.528;2023-12-20T03:23:34;100870.56;;;6.48;100.00
55010;BME280;40903;51.638;7.528;2023-12-20T03:26:00;100870.84;;;6.46;100.00
55010;BME280;40903;51.638;7.528;2023-12-20T03:28:27;100866.25;;;6.47;100.00
55010;BME280;40903;51.638;7.528;2023-12-20T03:30:52;100867.31;;;6.46;100.00
55010;BME280;40903;51.638;7.528;2023-12-20T03:33:18;100872.16;;;6.39;100.00
55010;BME280;40903;51.638;7.528;2023-12-20T03:35:44;100866.72;;;6.39;100.00
55010;BME280;40903;51.638;7.528;2023-12-20T03:38:09;100867.53;;;6.39;100.00
55010;BME280;40903;51.638;7.528;2023-12-20T03:40:35;100878.63;;;6.38;100.00
55010;BME280;40903;51.638;7.528;2023-12-20T03:43:01;100869.38;;;6.34;100.00
55010;BME280;40903;51.638;7.528;2023-12-20T03:45:26;100868.31;;;6.35;100.00
55010;BME280;40903;51.638;7.528;2023-12-20T03:47:52;100867.22;;;6.36;100.00
55010;BME280;40903;51.638;7.528;2023-12-20T03:50:25;100860.91;;;6.25;100.00
55010;BME280;40903;51.638;7.528;2023-12-20T03:52:50;100851.16;;;6.24;100.00
55010;BME280;40903;51.638;7.528;2023-12-20T03:55:16;100860.63;;;6.22;100.00
55010;BME280;40903;51.638;7.528;2023-12-20T03:57:41;100856.78;;;6.18;100.00
55010;BME280;40903;51.638;7.528;2023-12-20T04:00:08;100866.81;;;6.17;100.00
55010;BME280;40903;51.638;7.528;2023-12-20T04:02:40;100868.72;;;6.22;100.00
55010;BME280;40903;51.638;7.528;2023-12-20T04:05:06;100861.69;;;6.21;100.00
55010;BME280;40903;51.638;7.528;2023-12-20T04:07:32;100865.47;;;6.20;100.00
55010;BME280;40903;51.638;7.528;2023-12-20T04:09:58;100864.13;;;6.17;100.00
55010;BME280;40903;51.638;7.528;2023-12-20T04:12:23;100850.06;;;6.20;100.00
55010;BME280;40903;51.638;7.528;2023-12-20T04:14:51;100850.59;;;6.17;100.00
55010;BME280;40903;51.638;7.528;2023-12-20T04:17:17;100847.03;;;6.17;100.00
55010;BME280;40903;51.638;7.528;2023-12-20T04:19:43;100851.38;;;6.18;100.00
55010;BME280;40903;51.638;7.528;2023-12-20T04:22:08;100864.13;;;6.17;100.00
55010;BME280;40903;51.638;7.528;2023-12-20T04:24:34;100858.41;;;6.14;100.00
55010;BME280;40903;51.638;7.528;2023-12-20T04:27:00;100845.94;;;6.13;100.00
55010;BME280;40903;51.638;7.528;2023-12-20T04:29:27;100851.59;;;6.11;100.00
55010;BME280;40903;51.638;7.528;2023-12-20T04:31:53;100846.50;;;6.15;100.00
55010;BME280;40903;51.638;7.528;2023-12-20T04:34:19;100842.16;;;6.14;100.00
55010;BME280;40903;51.638;7.528;2023-12-20T04:36:45;100854.81;;;6.08;100.00
55010;BME280;40903;51.638;7.528;2023-12-20T04:39:12;100855.06;;;6.07;100.00
55010;BME280;40903;51.638;7.528;2023-12-20T04:41:38;100866.69;;;6.02;100.00
55010;BME280;40903;51.638;7.528;2023-12-20T04:44:07;100863.16;;;6.02;100.00
55010;BME280;40903;51.638;7.528;2023-12-20T04:46:32;100864.78;;;6.03;100.00
55010;BME280;40903;51.638;7.528;2023-12-20T04:48:58;100864.25;;;6.06;100.00
55010;BME280;40903;51.638;7.528;2023-12-20T04:51:24;100873.47;;;6.05;100.00
55010;BME280;40903;51.638;7.528;2023-12-20T04:53:50;100870.50;;;6.06;100.00
55010;BME280;40903;51.638;7.528;2023-12-20T04:56:15;100853.19;;;6.07;100.00
55010;BME280;40903;51.638;7.528;2023-12-20T04:58:42;100856.13;;;6.06;100.00
55010;BME280;40903;51.638;7.528;2023-12-20T05:01:09;100862.69;;;6.10;100.00
55010;BME280;40903;51.638;7.528;2023-12-20T05:03:35;100861.09;;;6.14;100.00
55010;BME280;40903;51.638;7.528;2023-12-20T05:06:00;100866.25;;;6.15;100.00
55010;BME280;40903;51.638;7.528;2023-12-20T05:08:26;100875.19;;;6.16;100.00
55010;BME280;40903;51.638;7.528;2023-12-20T05:10:56;100868.69;;;6.17;100.00
55010;BME280;40903;51.638;7.528;2023-12-20T05:13:22;100863.31;;;6.22;100.00
55010;BME280;40903;51.638;7.528;2023-12-20T05:15:47;100863.06;;;6.23;100.00
55010;BME280;40903;51.638;7.528;2023-12-20T05:18:13;100858.44;;;6.19;100.00
55010;BME280;40903;51.638;7.528;2023-12-20T05:20:39;100864.66;;;6.19;100.00
55010;BME280;40903;51.638;7.528;2023-12-20T05:23:05;100864.38;;;6.16;100.00
55010;BME280;40903;51.638;7.528;2023-12-20T05:25:31;100871.09;;;6.13;100.00
55010;BME280;40903;51.638;7.528;2023-12-20T05:27:56;100865.19;;;6.16;100.00
55010;BME280;40903;51.638;7.528;2023-12-20T05:30:22;100862.19;;;6.13;100.00
55010;BME280;40903;51.638;7.528;2023-12-20T05:32:48;100850.81;;;6.16;100.00
55010;BME280;40903;51.638;7.528;2023-12-20T05:35:13;100850.53;;;6.12;100.00
55010;BME280;40903;51.638;7.528;2023-12-20T05:37:40;100846.69;;;6.08;100.00
55010;BME280;40903;51.638;7.528;2023-12-20T05:40:06;100852.94;;;6.09;100.00
55010;BME280;40903;51.638;7.528;2023-12-20T05:42:32;100850.78;;;6.11;100.00
55010;BME280;40903;51.638;7.528;2023-12-20T05:44:57;100842.66;;;6.11;100.00
55010;BME280;40903;51.638;7.528;2023-12-20T05:47:23;100855.16;;;6.17;100.00
55010;BME280;40903;51.638;7.528;2023-12-20T05:49:48;100854.38;;;6.16;100.00
55010;BME280;40903;51.638;7.528;2023-12-20T05:52:15;100845.44;;;6.21;100.00
55010;BME280;40903;51.638;7.528;2023-12-20T05:54:41;100849.75;;;6.17;100.00
55010;BME280;40903;51.638;7.528;2023-12-20T05:57:06;100845.41;;;6.16;100.00
55010;BME280;40903;51.638;7.528;2023-12-20T05:59:32;100852.69;;;6.15;100.00
55010;BME280;40903;51.638;7.528;2023-12-20T06:01:57;100856.25;;;6.16;100.00
55010;BME280;40903;51.638;7.528;2023-12-20T06:04:23;100861.97;;;6.19;100.00
55010;BME280;40903;51.638;7.528;2023-12-20T06:06:48;100851.13;;;6.19;100.00
55010;BME280;40903;51.638;7.528;2023-12-20T06:09:13;100853.00;;;6.19;100.00
55010;BME280;40903;51.638;7.528;2023-12-20T06:11:40;100855.78;;;6.24;100.00
55010;BME280;40903;51.638;7.528;2023-12-20T06:14:06;100853.63;;;6.26;100.00
55010;BME280;40903;51.638;7.528;2023-12-20T06:16:31;100851.72;;;6.26;100.00
55010;BME280;40903;51.638;7.528;2023-12-20T06:18:57;100858.25;;;6.30;100.00
55010;BME280;40903;51.638;7.528;2023-12-20T06:21:22;100852.59;;;6.32;100.00
55010;BME280;40903;51.638;7.528;2023-12-20T06:23:48;100854.50;;;6.31;100.00
55010;BME280;40903;51.638;7.528;2023-12-20T06:26:13;100862.31;;;6.28;100.00
55010;BME280;40903;51.638;7.528;2023-12-20T06:28:39;100860.16;;;6.30;100.00
55010;BME280;40903;51.638;7.528;2023-12-20T06:31:04;100858.53;;;6.29;100.00
55010;BME280;40903;51.638;7.528;2023-12-20T06:33:30;100859.59;;;6.28;100.00
55010;BME280;40903;51.638;7.528;2023-12-20T06:35:58;100854.44;;;6.26;100.00
55010;BME280;40903;51.638;7.528;2023-12-20T06:38:24;100848.47;;;6.24;100.00
55010;BME280;40903;51.638;7.528;2023-12-20T06:40:49;100847.38;;;6.25;100.00
55010;BME280;40903;51.638;7.528;2023-12-20T06:43:15;100838.19;;;6.26;100.00
55010;BME280;40903;51.638;7.528;2023-12-20T06:45:40;100838.19;;;6.26;100.00
55010;BME280;40903;51.638;7.528;2023-12-20T06:48:06;100849.53;;;6.23;100.00
55010;BME280;40903;51.638;7.528;2023-12-20T06:50:32;100853.88;;;6.24;100.00
55010;BME280;40903;51.638;7.528;2023-12-20T06:52:57;100861.19;;;6.24;100.00
55010;BME280;40903;51.638;7.528;2023-12-20T06:55:23;100858.22;;;6.25;100.00
55010;BME280;40903;51.638;7.528;2023-12-20T06:57:48;100849.84;;;6.27;100.00
55010;BME280;40903;51.638;7.528;2023-12-20T07:00:14;100847.69;;;6.29;100.00
55010;BME280;40903;51.638;7.528;2023-12-20T07:02:40;100847.72;;;6.34;100.00
55010;BME280;40903;51.638;7.528;2023-12-20T07:05:06;100848.28;;;6.36;100.00
55010;BME280;40903;51.638;7.528;2023-12-20T07:07:31;100849.34;;;6.35;100.00
55010;BME280;40903;51.638;7.528;2023-12-20T07:09:57;100842.56;;;6.32;100.00
55010;BME280;40903;51.638;7.528;2023-12-20T07:12:22;100843.91;;;6.30;100.00
55010;BME280;40903;51.638;7.528;2023-12-20T07:14:48;100853.66;;;6.31;100.00
55010;BME280;40903;51.638;7.528;2023-12-20T07:17:13;100850.69;;;6.32;100.00
55010;BME280;40903;51.638;7.528;2023-12-20T07:19:41;100843.06;;;6.29;100.00
55010;BME280;40903;51.638;7.528;2023-12-20T07:22:07;100848.78;;;6.33;100.00
55010;BME280;40903;51.638;7.528;2023-12-20T07:24:33;100852.34;;;6.33;100.00
55010;BME280;40903;51.638;7.528;2023-12-20T07:27:00;100855.84;;;6.34;100.00
55010;BME280;40903;51.638;7.528;2023-12-20T07:29:26;100853.69;;;6.36;100.00
55010;BME280;40903;51.638;7.528;2023-12-20T07:31:53;100859.09;;;6.36;100.00
55010;BME280;40903;51.638;7.528;2023-12-20T07:34:22;100866.72;;;6.39;100.00
55010;BME280;40903;51.638;7.528;2023-12-20T07:36:47;100860.78;;;6.42;100.00
55010;BME280;40903;51.638;7.528;2023-12-20T07:39:14;100870.50;;;6.38;100.00
55010;BME280;40903;51.638;7.528;2023-12-20T07:41:39;100866.72;;;6.39;100.00
55010;BME280;40903;51.638;7.528;2023-12-20T07:44:05;100862.38;;;6.38;100.00
55010;BME280;40903;51.638;7.528;2023-12-20T07:46:36;100865.34;;;6.36;100.00
55010;BME280;40903;51.638;7.528;2023-12-20T07:49:01;100859.09;;;6.36;100.00
55010;BME280;40903;51.638;7.528;2023-12-20T07:51:27;100866.97;;;6.37;100.00
55010;BME280;40903;51.638;7.528;2023-12-20T07:53:55;100859.16;;;6.41;100.00
55010;BME280;40903;51.638;7.528;2023-12-20T07:56:21;100850.72;;;6.37;100.00
55010;BME280;40903;51.638;7.528;2023-12-20T07:58:46;100864.81;;;6.39;100.00
55010;BME280;40903;51.638;7.528;2023-12-20T08:01:15;100857.53;;;6.40;100.00
55010;BME280;40903;51.638;7.528;2023-12-20T08:03:41;100859.72;;;6.43;100.00
55010;BME280;40903;51.638;7.528;2023-12-20T08:06:06;100857.25;;;6.41;100.00
55010;BME280;40903;51.638;7.528;2023-12-20T08:08:32;100848.06;;;6.42;100.00
55010;BME280;40903;51.638;7.528;2023-12-20T08:10:57;100851.91;;;6.46;100.00
55010;BME280;40903;51.638;7.528;2023-12-20T08:13:25;100857.03;;;6.48;100.00
55010;BME280;40903;51.638;7.528;2023-12-20T08:15:52;100850.00;;;6.52;100.00
55010;BME280;40903;51.638;7.528;2023-12-20T08:18:17;100844.59;;;6.52;100.00
55010;BME280;40903;51.638;7.528;2023-12-20T08:20:43;100848.94;;;6.53;100.00
55010;BME280;40903;51.638;7.528;2023-12-20T08:23:09;100843.78;;;6.51;100.00
55010;BME280;40903;51.638;7.528;2023-12-20T08:25:35;100842.19;;;6.55;100.00
55010;BME280;40903;51.638;7.528;2023-12-20T08:28:02;100842.72;;;6.52;100.00
55010;BME280;40903;51.638;7.528;2023-12-20T08:30:28;100844.09;;;6.55;100.00
55010;BME280;40903;51.638;7.528;2023-12-20T08:32:54;100843.28;;;6.59;100.00
55010;BME280;40903;51.638;7.528;2023-12-20T08:35:20;100843.03;;;6.61;100.00
55010;BME280;40903;51.638;7.528;2023-12-20T08:37:46;100840.88;;;6.63;100.00
55010;BME280;40903;51.638;7.528;2023-12-20T08:40:11;100843.91;;;6.66;100.00
55010;BME280;40903;51.638;7.528;2023-12-20T08:42:37;100847.97;;;6.69;100.00
55010;BME280;40903;51.638;7.528;2023-12-20T08:45:02;100850.13;;;6.67;100.00
55010;BME280;40903;51.638;7.528;2023-12-20T08:47:29;100857.69;;;6.65;100.00
55010;BME280;40903;51.638;7.528;2023-12-20T08:49:55;100856.13;;;6.69;100.00
55010;BME280;40903;51.638;7.528;2023-12-20T08:52:24;100844.19;;;6.70;100.00
55010;BME280;40903;51.638;7.528;2023-12-20T08:54:53;100839.56;;;6.70;100.00
55010;BME280;40903;51.638;7.528;2023-12-20T08:57:22;100843.66;;;6.73;100.00
55010;BME280;40903;51.638;7.528;2023-12-20T08:59:51;100843.38;;;6.74;100.00
55010;BME280;40903;51.638;7.528;2023-12-20T09:02:17;100834.72;;;6.72;100.00
55010;BME280;40903;51.638;7.528;2023-12-20T09:04:43;100830.38;;;6.71;100.00
55010;BME280;40903;51.638;7.528;2023-12-20T09:07:25;100836.09;;;6.75;100.00
55010;BME280;40903;51.638;7.528;2023-12-20T09:09:51;100832.28;;;6.76;100.00
55010;BME280;40903;51.638;7.528;2023-12-20T09:12:18;100820.38;;;6.77;100.00
55010;BME280;40903;51.638;7.528;2023-12-20T09:14:44;100823.34;;;6.75;100.00
55010;BME280;40903;51.638;7.528;2023-12-20T09:17:10;100828.50;;;6.77;100.00
55010;BME280;40903;51.638;7.528;2023-12-20T09:19:37;100829.34;;;6.82;100.00
55010;BME280;40903;51.638;7.528;2023-12-20T09:22:03;100818.25;;;6.84;100.00
55010;BME280;40903;51.638;7.528;2023-12-20T09:24:29;100827.75;;;6.86;100.00
55010;BME280;40903;51.638;7.528;2023-12-20T09:26:55;100814.72;;;6.83;100.00
55010;BME280;40903;51.638;7.528;2023-12-20T09:29:20;100823.69;;;6.89;100.00
55010;BME280;40903;51.638;7.528;2023-12-20T09:31:46;100818.25;;;6.84;100.00
55010;BME280;40903;51.638;7.528;2023-12-20T09:34:11;100816.09;;;6.86;100.00
55010;BME280;40903;51.638;7.528;2023-12-20T09:36:37;100809.31;;;6.83;100.00
55010;BME280;40903;51.638;7.528;2023-12-20T09:39:06;100819.91;;;6.85;100.00
55010;BME280;40903;51.638;7.528;2023-12-20T09:41:32;100822.31;;;6.86;100.00
55010;BME280;40903;51.638;7.528;2023-12-20T09:44:03;100816.38;;;6.89;100.00
55010;BME280;40903;51.638;7.528;2023-12-20T09:46:31;100812.31;;;6.92;100.00
55010;BME280;40903;51.638;7.528;2023-12-20T09:48:59;100815.03;;;6.92;100.00
55010;BME280;40903;51.638;7.528;2023-12-20T09:51:25;100802.31;;;6.97;100.00
55010;BME280;40903;51.638;7.528;2023-12-20T09:53:54;100807.19;;;6.95;100.00
55010;BME280;40903;51.638;7.528;2023-12-20T09:56:21;100807.75;;;6.97;100.00
55010;BME280;40903;51.638;7.528;2023-12-20T09:58:47;100808.84;;;7.01;100.00
55010;BME280;40903;51.638;7.528;2023-12-20T10:01:12;100809.66;;;7.02;100.00
55010;BME280;40903;51.638;7.528;2023-12-20T10:03:39;100808.59;;;7.08;100.00
55010;BME280;40903;51.638;7.528;2023-12-20T10:06:06;100806.44;;;7.10;100.00
55010;BME280;40903;51.638;7.528;2023-12-20T10:08:37;100800.47;;;7.13;100.00
55010;BME280;40903;51.638;7.528;2023-12-20T10:11:03;100818.94;;;7.16;100.00
55010;BME280;40903;51.638;7.528;2023-12-20T10:13:29;100803.22;;;7.23;100.00
55010;BME280;40903;51.638;7.528;2023-12-20T10:15:55;100803.53;;;7.26;100.00
55010;BME280;40903;51.638;7.528;2023-12-20T10:18:21;100801.63;;;7.27;100.00
55010;BME280;40903;51.638;7.528;2023-12-20T10:20:47;100803.22;;;7.23;100.00
55010;BME280;40903;51.638;7.528;2023-12-20T10:23:15;100797.84;;;7.33;100.00
55010;BME280;40903;51.638;7.528;2023-12-20T10:25:41;100796.75;;;7.34;100.00
55010;BME280;40903;51.638;7.528;2023-12-20T10:28:14;100791.34;;;7.34;100.00
55010;BME280;40903;51.638;7.528;2023-12-20T10:30:41;100785.63;;;7.30;100.00
55010;BME280;40903;51.638;7.528;2023-12-20T10:33:07;100798.38;;;7.30;100.00
55010;BME280;40903;51.638;7.528;2023-12-20T10:35:34;100788.88;;;7.27;100.00
55010;BME280;40903;51.638;7.528;2023-12-20T10:38:03;100795.38;;;7.26;100.00
55010;BME280;40903;51.638;7.528;2023-12-20T10:40:29;100794.00;;;7.24;100.00
55010;BME280;40903;51.638;7.528;2023-12-20T10:42:56;100782.09;;;7.25;100.00
55010;BME280;40903;51.638;7.528;2023-12-20T10:45:22;100787.50;;;7.25;100.00
55010;BME280;40903;51.638;7.528;2023-12-20T10:47:50;100781.81;;;7.21;100.00
55010;BME280;40903;51.638;7.528;2023-12-20T10:50:16;100777.75;;;7.19;100.00
55010;BME280;40903;51.638;7.528;2023-12-20T10:52:42;100782.88;;;7.20;100.00
55010;BME280;40903;51.638;7.528;2023-12-20T10:55:10;100787.78;;;7.23;100.00
55010;BME280;40903;51.638;7.528;2023-12-20T10:57:36;100776.13;;;7.23;100.00
55010;BME280;40903;51.638;7.528;2023-12-20T11:00:02;100783.16;;;7.24;100.00
55010;BME280;40903;51.638;7.528;2023-12-20T11:02:39;100778.28;;;7.26;100.00
55010;BME280;40903;51.638;7.528;2023-12-20T11:05:12;100772.88;;;7.26;100.00
55010;BME280;40903;51.638;7.528;2023-12-20T11:08:09;100779.91;;;7.27;100.00
55010;BME280;40903;51.638;7.528;2023-12-20T11:10:48;100761.22;;;7.25;100.00
55010;BME280;40903;51.638;7.528;2023-12-20T11:15:48;100770.69;;;7.28;100.00
55010;BME280;40903;51.638;7.528;2023-12-20T11:18:14;100762.59;;;7.33;100.00
55010;BME280;40903;51.638;7.528;2023-12-20T11:20:41;100765.84;;;7.35;100.00
55010;BME280;40903;51.638;7.528;2023-12-20T11:23:10;100781.84;;;7.31;100.00
55010;BME280;40903;51.638;7.528;2023-12-20T11:25:52;100764.22;;;7.29;100.00
55010;BME280;40903;51.638;7.528;2023-12-20T11:28:22;100761.22;;;7.35;100.00
55010;BME280;40903;51.638;7.528;2023-12-20T11:30:51;100755.28;;;7.38;100.00
55010;BME280;40903;51.638;7.528;2023-12-20T11:33:21;100763.69;;;7.42;100.00
55010;BME280;40903;51.638;7.528;2023-12-20T11:35:47;100762.09;;;7.46;100.00
55010;BME280;40903;51.638;7.528;2023-12-20T11:38:13;100768.31;;;7.46;100.00
55010;BME280;40903;51.638;7.528;2023-12-20T11:40:41;100760.44;;;7.45;100.00
55010;BME280;40903;51.638;7.528;2023-12-20T11:43:07;100769.13;;;7.47;100.00
55010;BME280;40903;51.638;7.528;2023-12-20T11:45:33;100758.28;;;7.47;100.00
55010;BME280;40903;51.638;7.528;2023-12-20T11:48:01;100756.09;;;7.54;100.00
55010;BME280;40903;51.638;7.528;2023-12-20T11:50:28;100743.91;;;7.51;100.00
55010;BME280;40903;51.638;7.528;2023-12-20T11:52:55;100757.47;;;7.51;100.00
55010;BME280;40903;51.638;7.528;2023-12-20T11:55:24;100748.22;;;7.47;100.00
55010;BME280;40903;51.638;7.528;2023-12-20T11:57:58;100736.84;;;7.50;100.00
55010;BME280;40903;51.638;7.528;2023-12-20T12:00:24;100742.53;;;7.49;100.00
55010;BME280;40903;51.638;7.528;2023-12-20T12:02:57;100740.63;;;7.49;100.00
55010;BME280;40903;51.638;7.528;2023-12-20T12:05:23;100736.03;;;7.45;100.00
55010;BME280;40903;51.638;7.528;2023-12-20T12:07:49;100732.25;;;7.46;100.00
55010;BME280;40903;51.638;7.528;2023-12-20T12:10:14;100728.44;;;7.47;100.00
55010;BME280;40903;51.638;7.528;2023-12-20T12:12:40;100735.22;;;7.49;100.00
55010;BME280;40903;51.638;7.528;2023-12-20T12:15:06;100721.94;;;7.48;100.00
55010;BME280;40903;51.638;7.528;2023-12-20T12:17:32;100711.06;;;7.48;100.00
55010;BME280;40903;51.638;7.528;2023-12-20T12:20:05;100718.13;;;7.49;100.00
55010;BME280;40903;51.638;7.528;2023-12-20T12:22:31;100713.25;;;7.46;100.00
55010;BME280;40903;51.638;7.528;2023-12-20T12:24:59;100695.59;;;7.48;100.00
55010;BME280;40903;51.638;7.528;2023-12-20T12:27:34;100713.22;;;7.41;100.00
55010;BME280;40903;51.638;7.528;2023-12-20T12:30:02;100710.53;;;7.46;100.00
55010;BME280;40903;51.638;7.528;2023-12-20T12:32:29;100705.38;;;7.44;100.00
55010;BME280;40903;51.638;7.528;2023-12-20T12:34:54;100705.91;;;7.41;100.00
55010;BME280;40903;51.638;7.528;2023-12-20T12:37:20;100703.47;;;7.40;100.00
55010;BME280;40903;51.638;7.528;2023-12-20T12:39:48;100706.16;;;7.40;100.00
55010;BME280;40903;51.638;7.528;2023-12-20T12:42:14;100701.03;;;7.38;100.00
55010;BME280;40903;51.638;7.528;2023-12-20T12:44:39;100701.53;;;7.35;100.00
55010;BME280;40903;51.638;7.528;2023-12-20T12:47:05;100702.91;;;7.43;100.00
55010;BME280;40903;51.638;7.528;2023-12-20T12:49:32;100697.50;;;7.43;100.00